createdAt,value
2017-09-24T00:00:37.854Z,216.30
2017-09-24T00:03:06.212Z,229.33
2017-09-24T00:05:34.579Z,230.90
2017-09-24T00:08:02.966Z,208.53
2017-09-24T00:10:31.325Z,197.50
2017-09-24T00:12:59.674Z,191.17
2017-09-24T00:15:28.036Z,191.40
2017-09-24T00:17:56.522Z,180.90
2017-09-24T00:20:24.879Z,169.23
2017-09-24T00:22:53.226Z,177.13
2017-09-24T00:25:21.578Z,159.90
2017-09-24T00:27:49.930Z,189.07
2017-09-24T00:30:18.430Z,201.37
2017-09-24T00:32:46.778Z,206.27
2017-09-24T00:35:15.139Z,212.27
2017-09-24T00:37:43.486Z,219.13
2017-09-24T00:40:11.842Z,226.60
2017-09-24T00:42:40.222Z,192.30
2017-09-24T00:45:08.571Z,191.10
2017-09-24T00:47:36.922Z,176.73
2017-09-24T00:50:05.275Z,185.03
2017-09-24T00:52:33.626Z,193.20
2017-09-24T00:55:01.993Z,198.20
2017-09-24T00:57:30.334Z,207.00
2017-09-24T00:59:58.822Z,209.03
2017-09-24T01:02:27.174Z,206.73
2017-09-24T01:04:55.526Z,204.63
2017-09-24T01:07:23.882Z,188.60
2017-09-24T01:09:52.235Z,180.57
2017-09-24T01:12:20.627Z,177.40
2017-09-24T01:14:48.986Z,166.70
2017-09-24T01:17:17.339Z,172.10
2017-09-24T01:19:45.692Z,197.67
2017-09-24T01:22:14.043Z,196.67
2017-09-24T01:24:42.418Z,201.73
2017-09-24T01:27:10.766Z,200.87
2017-09-24T01:29:39.162Z,197.40
2017-09-24T01:32:07.514Z,210.23
2017-09-24T01:34:35.862Z,217.43
2017-09-24T01:37:04.214Z,200.57
2017-09-24T01:39:32.567Z,200.77
2017-09-24T01:42:00.919Z,201.03
2017-09-24T01:44:29.275Z,205.97
2017-09-24T01:46:57.652Z,197.30
2017-09-24T01:49:26.005Z,156.03
2017-09-24T01:51:54.482Z,179.93
2017-09-24T01:54:22.841Z,174.77
2017-09-24T01:56:51.190Z,181.57
2017-09-24T01:59:19.552Z,187.43
2017-09-24T02:01:47.911Z,178.07
2017-09-24T02:04:16.395Z,166.57
2017-09-24T02:06:44.758Z,169.17
2017-09-24T02:09:13.107Z,194.33
2017-09-24T02:11:41.458Z,155.13
2017-09-24T02:14:09.810Z,157.20
2017-09-24T02:16:38.199Z,157.03
2017-09-24T02:19:06.551Z,161.80
2017-09-24T02:21:34.926Z,164.17
2017-09-24T02:24:03.266Z,175.20
2017-09-24T02:26:31.626Z,165.67
2017-09-24T02:29:00.102Z,206.13
2017-09-24T02:31:28.455Z,186.90
2017-09-24T02:33:56.807Z,176.10
2017-09-24T02:36:25.166Z,180.67
2017-09-24T02:38:53.518Z,153.03
2017-09-24T02:41:21.877Z,159.00
2017-09-24T02:43:50.228Z,146.63
2017-09-24T02:46:18.603Z,152.07
2017-09-24T02:48:46.958Z,140.23
2017-09-24T02:51:15.312Z,163.43
2017-09-24T02:53:43.658Z,163.00
2017-09-24T02:56:12.010Z,154.53
2017-09-24T02:58:40.362Z,143.33
2017-09-24T03:01:08.718Z,146.57
2017-09-24T03:03:37.203Z,148.20
2017-09-24T03:06:05.555Z,157.93
2017-09-24T03:08:33.918Z,148.13
2017-09-24T03:11:02.263Z,129.50
2017-09-24T03:13:30.611Z,127.37
2017-09-24T03:15:58.986Z,142.77
2017-09-24T03:18:27.343Z,163.70
2017-09-24T03:20:55.696Z,162.57
2017-09-24T03:23:24.054Z,172.27
2017-09-24T03:25:52.394Z,160.27
2017-09-24T03:28:20.747Z,153.57
2017-09-24T03:30:49.099Z,142.53
2017-09-24T03:33:17.609Z,143.07
2017-09-24T03:35:45.956Z,121.07
2017-09-24T03:38:14.303Z,122.93
2017-09-24T03:40:42.655Z,126.40
2017-09-24T03:43:11.006Z,149.20
2017-09-24T03:45:39.502Z,136.70
2017-09-24T03:48:07.854Z,141.30
2017-09-24T03:50:36.207Z,133.73
2017-09-24T03:53:04.555Z,138.83
2017-09-24T03:55:32.908Z,118.83
2017-09-24T03:58:01.306Z,119.23
2017-09-24T04:00:29.661Z,139.60
2017-09-24T04:02:58.012Z,129.70
2017-09-24T04:05:26.365Z,141.57
2017-09-24T04:07:55.022Z,115.27
2017-09-24T04:10:23.383Z,120.97
2017-09-24T04:12:51.735Z,121.53
2017-09-24T04:15:20.138Z,132.53
2017-09-24T04:17:48.526Z,121.27
2017-09-24T04:20:16.883Z,145.67
2017-09-24T04:22:45.229Z,159.47
2017-09-24T04:25:13.582Z,125.83
2017-09-24T04:27:42.062Z,119.63
2017-09-24T04:30:10.419Z,103.03
2017-09-24T04:32:38.770Z,105.27
2017-09-24T04:35:07.127Z,110.43
2017-09-24T04:37:35.474Z,115.43
2017-09-24T04:40:03.855Z,109.13
2017-09-24T04:42:32.202Z,112.10
2017-09-24T04:45:00.599Z,124.60
2017-09-24T04:47:28.957Z,124.73
2017-09-24T04:49:57.312Z,126.37
2017-09-24T04:52:25.664Z,133.67
2017-09-24T04:54:54.021Z,162.33
2017-09-24T04:57:22.398Z,152.03
2017-09-24T04:59:50.750Z,118.93
2017-09-24T05:02:19.109Z,112.53
2017-09-24T05:04:47.455Z,100.30
2017-09-24T05:07:15.802Z,124.67
2017-09-24T05:09:44.190Z,107.63
2017-09-24T05:12:12.536Z,116.27
2017-09-24T05:14:40.891Z,126.70
2017-09-24T05:17:09.239Z,123.20
2017-09-24T05:19:37.595Z,127.00
2017-09-24T05:22:06.078Z,136.30
2017-09-24T05:24:34.438Z,139.07
2017-09-24T05:27:02.790Z,140.77
2017-09-24T05:29:31.142Z,152.63
2017-09-24T05:31:59.495Z,154.87
2017-09-24T05:34:27.975Z,156.13
2017-09-24T05:36:56.339Z,166.00
2017-09-24T05:39:24.691Z,169.40
2017-09-24T05:41:53.045Z,160.80
2017-09-24T05:44:21.391Z,142.97
2017-09-24T05:46:49.774Z,138.83
2017-09-24T05:49:18.123Z,152.57
2017-09-24T05:51:46.507Z,142.77
2017-09-24T05:54:14.858Z,148.23
2017-09-24T05:56:43.246Z,167.03
2017-09-24T05:59:11.599Z,156.70
2017-09-24T06:01:39.966Z,152.73
2017-09-24T06:04:08.447Z,179.40
2017-09-24T06:06:36.801Z,174.13
2017-09-24T06:09:05.159Z,170.77
2017-09-24T06:11:33.515Z,176.07
2017-09-24T06:14:02.114Z,151.43
2017-09-24T06:16:31.283Z,146.07
2017-09-24T06:19:00.624Z,123.40
2017-09-24T06:21:30.045Z,144.43
2017-09-24T06:23:58.992Z,150.57
2017-09-24T06:26:27.779Z,136.33
2017-09-24T06:28:57.193Z,149.00
2017-09-24T06:31:26.255Z,141.30
2017-09-24T06:33:54.916Z,146.73
2017-09-24T06:36:23.625Z,140.67
2017-09-24T06:38:52.670Z,137.03
2017-09-24T06:41:21.558Z,153.83
2017-09-24T06:43:50.336Z,138.87
2017-09-24T06:46:19.931Z,143.87
2017-09-24T06:48:48.906Z,129.43
2017-09-24T06:51:17.972Z,112.77
2017-09-24T06:53:46.603Z,104.13
2017-09-24T06:56:15.546Z,115.63
2017-09-24T06:58:44.232Z,106.07
2017-09-24T07:01:13.178Z,113.00
2017-09-24T07:03:42.140Z,108.03
2017-09-24T07:06:10.801Z,112.93
2017-09-24T07:08:39.863Z,112.80
2017-09-24T07:11:08.587Z,106.17
2017-09-24T07:13:37.681Z,97.23
2017-09-24T07:16:06.989Z,92.97
2017-09-24T07:18:35.766Z,95.10
2017-09-24T07:21:04.699Z,83.67
2017-09-24T07:23:33.538Z,75.30
2017-09-24T07:26:02.610Z,79.43
2017-09-24T07:28:31.327Z,73.67
2017-09-24T07:30:59.883Z,77.30
2017-09-24T07:33:28.226Z,85.90
2017-09-24T07:35:56.576Z,77.97
2017-09-24T07:38:24.922Z,88.97
2017-09-24T07:40:53.266Z,69.73
2017-09-24T07:43:21.746Z,63.47
2017-09-24T07:45:50.098Z,68.13
2017-09-24T07:48:18.434Z,81.87
2017-09-24T07:50:46.778Z,67.70
2017-09-24T07:53:15.127Z,68.67
2017-09-24T07:55:43.499Z,68.23
2017-09-24T07:58:11.854Z,60.90
2017-09-24T08:00:40.198Z,73.97
2017-09-24T08:03:08.551Z,65.93
2017-09-24T08:05:36.890Z,62.87
2017-09-24T08:08:05.271Z,65.63
2017-09-24T08:10:33.611Z,67.40
2017-09-24T08:13:01.950Z,64.63
2017-09-24T08:15:30.298Z,58.27
2017-09-24T08:17:58.640Z,62.63
2017-09-24T08:20:27.015Z,60.90
2017-09-24T08:22:55.361Z,55.63
2017-09-24T08:25:23.734Z,43.10
2017-09-24T08:27:52.097Z,49.23
2017-09-24T08:30:20.440Z,41.57
2017-09-24T08:32:48.790Z,42.53
2017-09-24T08:35:17.139Z,40.93
2017-09-24T08:37:45.483Z,42.07
2017-09-24T08:40:13.831Z,41.60
2017-09-24T08:42:42.179Z,43.07
2017-09-24T08:45:10.538Z,44.40
2017-09-24T08:47:38.931Z,59.53
2017-09-24T08:50:07.284Z,45.03
2017-09-24T08:52:35.635Z,46.43
2017-09-24T08:55:03.975Z,63.23
2017-09-24T08:57:32.332Z,37.47
2017-09-24T09:00:00.802Z,41.00
2017-09-24T09:02:29.146Z,40.03
2017-09-24T09:04:57.496Z,40.27
2017-09-24T09:07:25.843Z,40.03
2017-09-24T09:09:54.187Z,42.07
2017-09-24T09:12:22.643Z,41.90
2017-09-24T09:14:50.995Z,47.70
2017-09-24T09:17:19.341Z,39.70
2017-09-24T09:19:47.690Z,41.00
2017-09-24T09:22:16.037Z,40.27
2017-09-24T09:24:44.386Z,39.27
2017-09-24T09:27:12.733Z,36.33
2017-09-24T09:29:41.213Z,36.50
2017-09-24T09:32:09.555Z,33.70
2017-09-24T09:34:37.911Z,38.80
2017-09-24T09:37:06.251Z,38.37
2017-09-24T09:39:34.595Z,41.80
2017-09-24T09:42:03.066Z,41.87
2017-09-24T09:44:43.214Z,45.33
2017-09-24T09:47:23.215Z,37.67
2017-09-24T09:49:51.566Z,39.13
2017-09-24T09:52:19.907Z,35.27
2017-09-24T09:54:48.282Z,42.90
2017-09-24T09:57:16.632Z,29.77
2017-09-24T09:59:45.083Z,29.03
2017-09-24T10:02:13.434Z,32.03
2017-09-24T10:04:41.781Z,40.10
2017-09-24T10:07:21.811Z,34.73
2017-09-24T10:10:01.707Z,32.20
2017-09-24T10:12:30.057Z,33.60
2017-09-24T10:14:58.415Z,40.13
2017-09-24T10:17:26.784Z,32.10
2017-09-24T10:19:55.130Z,32.63
2017-09-24T10:22:23.606Z,30.80
2017-09-24T10:24:51.954Z,28.30
2017-09-24T10:27:20.301Z,34.23
2017-09-24T10:30:00.407Z,35.87
2017-09-24T10:32:28.799Z,31.93
2017-09-24T10:34:57.147Z,30.13
2017-09-24T10:37:25.496Z,32.60
2017-09-24T10:39:53.868Z,30.23
2017-09-24T10:42:22.246Z,25.40
2017-09-24T10:44:50.623Z,23.23
2017-09-24T10:47:19.322Z,25.60
2017-09-24T10:49:48.078Z,31.83
2017-09-24T10:52:16.495Z,24.83
2017-09-24T10:54:44.858Z,21.00
2017-09-24T10:57:13.208Z,20.30
2017-09-24T10:59:41.567Z,20.10
2017-09-24T11:02:09.951Z,23.40
2017-09-24T11:04:38.315Z,22.27
2017-09-24T11:07:06.715Z,22.67
2017-09-24T11:09:36.017Z,22.47
2017-09-24T11:12:04.511Z,23.10
2017-09-24T11:14:37.595Z,22.50
2017-09-24T11:17:06.277Z,23.10
2017-09-24T11:19:34.746Z,24.07
2017-09-24T11:22:04.378Z,30.30
2017-09-24T11:24:32.874Z,26.17
2017-09-24T11:27:01.380Z,25.40
2017-09-24T11:29:29.927Z,28.80
2017-09-24T11:31:58.403Z,21.90
2017-09-24T11:34:26.875Z,25.10
2017-09-24T11:36:55.400Z,27.33
2017-09-24T11:39:23.900Z,24.67
2017-09-24T11:41:52.482Z,25.80
2017-09-24T11:44:20.980Z,22.67
2017-09-24T11:46:51.288Z,19.80
2017-09-24T11:49:20.413Z,19.50
2017-09-24T11:51:50.823Z,19.20
2017-09-24T11:54:20.142Z,17.20
2017-09-24T11:56:49.240Z,15.40
2017-09-24T11:59:17.800Z,21.23
2017-09-24T12:01:46.386Z,24.13
2017-09-24T12:04:18.926Z,18.17
2017-09-24T12:06:49.054Z,19.67
2017-09-24T12:09:17.508Z,17.73
2017-09-24T12:11:46.361Z,14.10
2017-09-24T12:14:16.851Z,17.30
2017-09-24T12:16:47.273Z,19.50
2017-09-24T12:19:15.929Z,12.10
2017-09-24T12:21:44.400Z,14.43
2017-09-24T12:24:16.961Z,10.53
2017-09-24T12:26:45.860Z,9.97
2017-09-24T12:29:14.556Z,12.00
2017-09-24T12:31:43.211Z,12.63
2017-09-24T12:34:11.676Z,15.67
2017-09-24T12:37:00.197Z,14.80
2017-09-24T12:39:37.833Z,15.00
2017-09-24T12:42:06.772Z,15.73
2017-09-24T12:44:37.033Z,14.07
2017-09-24T12:47:10.362Z,12.60
2017-09-24T12:49:39.701Z,13.37
2017-09-24T12:52:09.937Z,16.80
2017-09-24T13:00:33.404Z,13.23
2017-09-24T13:12:22.622Z,20.00
2017-09-24T13:16:52.570Z,15.03
2017-09-24T13:22:52.101Z,19.33
2017-09-24T13:28:32.257Z,27.17
2017-09-24T13:34:29.396Z,19.63
2017-09-24T13:43:17.090Z,27.00
2017-09-24T13:52:23.602Z,17.50
2017-09-24T13:54:53.130Z,18.80
2017-09-24T13:57:21.996Z,18.27
2017-09-24T13:59:50.662Z,14.27
2017-09-24T14:02:19.583Z,13.20
2017-09-24T14:04:47.969Z,13.00
2017-09-24T14:07:16.300Z,11.90
2017-09-24T14:09:45.799Z,10.90
2017-09-24T16:07:42.179Z,9.30
2017-09-24T16:10:10.519Z,10.70
2017-09-24T16:12:38.867Z,6.13
2017-09-24T16:15:07.211Z,7.87
2017-09-24T16:17:35.554Z,6.53
2017-09-24T16:20:03.923Z,7.40
2017-09-24T16:22:32.270Z,9.63
2017-09-24T16:25:00.642Z,10.80
2017-09-24T16:27:29.011Z,7.33
2017-09-24T16:29:57.467Z,5.60
2017-09-24T16:32:25.854Z,5.43
2017-09-24T16:34:54.198Z,6.73
2017-09-24T16:37:22.571Z,5.20
2017-09-24T16:39:50.902Z,7.00
2017-09-24T16:42:19.551Z,5.30
2017-09-24T16:44:47.904Z,5.27
2017-09-24T16:47:16.309Z,6.60
2017-09-24T16:49:44.680Z,6.87
2017-09-24T16:52:13.040Z,8.13
2017-09-24T16:54:41.418Z,9.67
2017-09-24T16:57:09.749Z,7.30
2017-09-24T16:59:38.114Z,8.50
2017-09-24T17:02:06.608Z,6.33
2017-09-24T17:04:34.974Z,9.87
2017-09-24T17:07:03.491Z,7.17
2017-09-24T17:09:31.845Z,7.87
2017-09-24T17:12:00.181Z,9.80
2017-09-24T17:14:28.566Z,18.40
2017-09-24T17:16:57.743Z,6.57
2017-09-24T17:19:26.114Z,8.07
2017-09-24T17:21:54.451Z,8.20
2017-09-24T17:24:22.814Z,7.10
2017-09-24T17:26:51.148Z,6.90
2017-09-24T17:29:19.491Z,8.33
2017-09-24T17:31:47.842Z,12.00
2017-09-24T17:34:16.183Z,9.03
2017-09-24T17:36:44.525Z,9.67
2017-09-24T17:39:12.866Z,9.40
2017-09-24T17:41:41.203Z,9.10
2017-09-24T17:44:09.546Z,13.90
2017-09-24T17:46:37.907Z,7.17
2017-09-24T17:49:06.270Z,7.83
2017-09-24T17:51:34.627Z,16.77
2017-09-24T17:54:03.195Z,7.27
2017-09-24T17:56:31.543Z,8.43
2017-09-24T17:58:59.919Z,6.43
2017-09-24T18:01:28.248Z,7.90
2017-09-24T18:03:56.610Z,10.73
2017-09-24T18:06:24.960Z,9.13
2017-09-24T18:08:53.319Z,11.53
2017-09-24T18:11:21.669Z,10.27
2017-09-24T18:13:50.016Z,10.73
2017-09-24T18:16:18.382Z,9.80
2017-09-24T18:18:46.718Z,9.90
2017-09-24T18:21:15.087Z,11.70
2017-09-24T18:23:43.460Z,10.13
2017-09-24T18:26:11.850Z,12.13
2017-09-24T18:28:40.220Z,12.70
2017-09-24T18:31:08.576Z,10.47
2017-09-24T18:33:36.950Z,10.40
2017-09-24T18:36:05.306Z,10.37
2017-09-24T18:38:33.694Z,10.50
2017-09-24T18:41:02.455Z,9.10
2017-09-24T18:43:30.880Z,11.67
2017-09-24T18:45:59.864Z,11.93
2017-09-24T18:48:28.343Z,13.73
2017-09-24T18:50:56.690Z,14.10
2017-09-24T18:53:25.047Z,13.40
2017-09-24T18:55:53.607Z,12.70
2017-09-24T18:58:27.758Z,15.00
2017-09-24T19:00:57.668Z,17.67
2017-09-24T19:03:26.563Z,30.60
2017-09-24T19:05:54.911Z,16.47
2017-09-24T19:08:23.265Z,17.87
2017-09-24T19:10:51.639Z,16.53
2017-09-24T19:13:19.995Z,24.10
2017-09-24T19:15:48.474Z,18.40
2017-09-24T19:18:17.111Z,19.30
2017-09-24T19:20:45.810Z,18.10
2017-09-24T19:23:14.183Z,17.80
2017-09-24T19:25:42.589Z,22.70
2017-09-24T19:28:11.223Z,19.10
2017-09-24T19:30:39.574Z,25.17
2017-09-24T19:33:07.918Z,23.20
2017-09-24T19:35:36.280Z,18.90
2017-09-24T19:38:04.626Z,26.60
2017-09-24T19:40:33.010Z,21.07
2017-09-24T19:43:01.359Z,24.00
2017-09-24T19:45:29.707Z,19.43
2017-09-24T19:47:58.086Z,21.10
2017-09-24T19:50:26.434Z,19.70
2017-09-24T19:52:54.809Z,22.33
2017-09-24T19:55:23.157Z,20.60
2017-09-24T19:57:51.534Z,23.13
2017-09-24T20:00:19.908Z,23.03
2017-09-24T20:02:48.266Z,27.10
2017-09-24T20:05:16.643Z,21.63
2017-09-24T20:07:45.016Z,29.63
2017-09-24T20:10:13.386Z,23.40
2017-09-24T20:12:41.855Z,25.30
2017-09-24T20:15:10.471Z,24.27
2017-09-24T20:17:38.825Z,23.20
2017-09-24T20:20:07.166Z,21.67
2017-09-24T20:22:35.518Z,23.50
2017-09-24T20:25:03.872Z,22.63
2017-09-24T20:27:32.251Z,24.03
2017-09-24T20:30:00.632Z,23.20
2017-09-24T20:32:28.979Z,25.00
2017-09-24T20:34:57.358Z,24.77
2017-09-24T20:37:25.703Z,32.17
2017-09-24T20:39:54.085Z,23.20
2017-09-24T20:42:22.442Z,27.53
2017-09-24T20:44:50.816Z,24.00
2017-09-24T20:47:19.166Z,24.13
2017-09-24T20:49:47.524Z,19.90
2017-09-24T20:52:15.876Z,18.50
2017-09-24T20:54:44.230Z,22.63
2017-09-24T20:57:12.579Z,23.27
2017-09-24T20:59:41.035Z,26.70
2017-09-24T21:02:09.399Z,27.30
2017-09-24T21:04:37.738Z,30.60
2017-09-24T21:07:06.094Z,22.40
2017-09-24T21:09:34.466Z,23.43
2017-09-24T21:12:02.820Z,24.73
2017-09-24T21:14:31.167Z,26.00
2017-09-24T21:16:59.522Z,27.57
2017-09-24T21:19:27.876Z,27.87
2017-09-24T21:21:56.250Z,25.20
2017-09-24T21:24:24.623Z,23.97
2017-09-24T21:26:52.971Z,24.07
2017-09-24T21:29:21.320Z,25.63
2017-09-24T21:31:49.671Z,26.30
2017-09-24T21:34:18.019Z,21.47
2017-09-24T21:36:46.392Z,19.97
2017-09-24T21:39:14.763Z,18.60
2017-09-24T21:41:43.114Z,17.93
2017-09-24T21:44:12.242Z,18.63
2017-09-24T21:46:40.590Z,16.73
2017-09-24T21:49:08.942Z,20.93
2017-09-24T21:51:37.288Z,21.40
2017-09-24T21:54:05.636Z,21.93
2017-09-24T21:56:34.011Z,22.20
2017-09-24T21:59:02.395Z,17.53
2017-09-24T22:01:30.771Z,21.57
2017-09-24T22:03:59.117Z,22.57
2017-09-24T22:06:27.495Z,20.80
2017-09-24T22:08:55.841Z,22.60
2017-09-24T22:11:24.200Z,23.60
2017-09-24T22:13:52.543Z,20.07
2017-09-24T22:16:20.892Z,21.10
2017-09-24T22:18:49.388Z,22.90
2017-09-24T22:21:17.734Z,21.67
2017-09-24T22:23:46.085Z,22.00
2017-09-24T22:26:14.427Z,21.20
2017-09-24T22:28:42.776Z,19.93
2017-09-24T22:31:11.126Z,22.20
2017-09-24T22:33:39.533Z,20.47
2017-09-24T22:36:07.929Z,19.73
2017-09-24T22:38:36.254Z,22.77
2017-09-24T22:41:04.730Z,26.53
2017-09-24T22:43:33.078Z,22.67
2017-09-24T22:46:01.762Z,21.50
2017-09-24T22:48:30.135Z,21.67
2017-09-24T22:50:58.485Z,22.37
2017-09-24T22:53:26.830Z,25.40
2017-09-24T22:55:55.227Z,23.43
2017-09-24T22:58:23.596Z,21.77
2017-09-24T23:00:51.972Z,23.53
2017-09-24T23:03:20.319Z,22.90
2017-09-24T23:05:48.695Z,22.80
2017-09-24T23:08:17.044Z,23.63
2017-09-24T23:10:45.398Z,22.37
2017-09-24T23:13:13.750Z,23.73
2017-09-24T23:15:42.095Z,23.60
2017-09-24T23:18:10.470Z,23.90
2017-09-24T23:20:38.820Z,22.93
2017-09-24T23:23:07.158Z,25.90
2017-09-24T23:25:35.635Z,25.63
2017-09-24T23:28:03.983Z,22.57
2017-09-24T23:30:32.338Z,22.20
2017-09-24T23:33:00.682Z,23.97
2017-09-24T23:35:29.034Z,25.53
2017-09-24T23:37:57.407Z,27.87
2017-09-24T23:40:25.779Z,23.43
2017-09-24T23:42:54.149Z,23.13
2017-09-24T23:45:22.525Z,21.10
2017-09-24T23:47:50.867Z,23.80
2017-09-24T23:50:19.214Z,23.70
2017-09-24T23:52:47.595Z,24.10
2017-09-24T23:55:15.943Z,23.27
2017-09-24T23:57:44.323Z,22.80
